Map

Track Data

SID SEASON NUMBER BASIN SUBBASIN NAME ISO_TIME NATURE LAT LON WMO_WIND WMO_PRES WMO_AGENCY TRACK_TYPE DIST2LAND LANDFALL IFLAG USA_AGENCY USA_ATCF_ID USA_LAT USA_LON USA_RECORD USA_STATUS USA_WIND USA_PRES USA_SSHS USA_R34_NE USA_R34_SE USA_R34_SW USA_R34_NW USA_R50_NE USA_R50_SE USA_R50_SW USA_R50_NW USA_R64_NE USA_R64_SE USA_R64_SW USA_R64_NW USA_POCI USA_ROCI USA_RMW USA_EYE TOKYO_LAT TOKYO_LON TOKYO_GRADE TOKYO_WIND TOKYO_PRES TOKYO_R50_DIR TOKYO_R50_LONG TOKYO_R50_SHORT TOKYO_R30_DIR TOKYO_R30_LONG TOKYO_R30_SHORT TOKYO_LAND CMA_LAT CMA_LON CMA_CAT CMA_WIND CMA_PRES HKO_LAT HKO_LON HKO_CAT HKO_WIND HKO_PRES NEWDELHI_LAT NEWDELHI_LON NEWDELHI_GRADE NEWDELHI_WIND NEWDELHI_PRES NEWDELHI_CI NEWDELHI_DP NEWDELHI_POCI REUNION_LAT REUNION_LON REUNION_TYPE REUNION_WIND REUNION_PRES REUNION_TNUM REUNION_CI REUNION_RMW REUNION_R34_NE REUNION_R34_SE REUNION_R34_SW REUNION_R34_NW REUNION_R50_NE REUNION_R50_SE REUNION_R50_SW REUNION_R50_NW REUNION_R64_NE REUNION_R64_SE REUNION_R64_SW REUNION_R64_NW BOM_LAT BOM_LON BOM_TYPE BOM_WIND BOM_PRES BOM_TNUM BOM_CI BOM_RMW BOM_R34_NE BOM_R34_SE BOM_R34_SW BOM_R34_NW BOM_R50_NE BOM_R50_SE BOM_R50_SW BOM_R50_NW BOM_R64_NE BOM_R64_SE BOM_R64_SW BOM_R64_NW BOM_ROCI BOM_POCI BOM_EYE BOM_POS_METHOD BOM_PRES_METHOD NADI_LAT NADI_LON NADI_CAT NADI_WIND NADI_PRES WELLINGTON_LAT WELLINGTON_LON WELLINGTON_WIND WELLINGTON_PRES DS824_LAT DS824_LON DS824_STAGE DS824_WIND DS824_PRES TD9636_LAT TD9636_LON TD9636_STAGE TD9636_WIND TD9636_PRES TD9635_LAT TD9635_LON TD9635_WIND TD9635_PRES TD9635_ROCI NEUMANN_LAT NEUMANN_LON NEUMANN_CLASS NEUMANN_WIND NEUMANN_PRES MLC_LAT MLC_LON MLC_CLASS MLC_WIND MLC_PRES USA_GUST BOM_GUST BOM_GUST_PER REUNION_GUST REUNION_GUST_PER USA_SEAHGT USA_SEARAD_NE USA_SEARAD_SE USA_SEARAD_SW USA_SEARAD_NW STORM_SPEED STORM_DIR
1872191N25268 1872 16 NA GM NOT_NAMED 1872-07-09 00:00:00 TS 24.7333 -91.8000 40 hurdat_atl main 430 430 O____________O hurdat_atl AL011872 23.5000 -92.0000 TS 40 0 27.2000 -91.4000 TS 35 6 26
1872191N25268 1872 16 NA GM NOT_NAMED 1872-07-09 03:00:00 TS 24.9892 -91.6635 main 458 439 P____________P AL011872 23.8100 -91.8952 TS 40 0 27.3476 -91.2001 TS 35 6 26
1872191N25268 1872 16 NA GM NOT_NAMED 1872-07-09 06:00:00 TS 25.2333 -91.5333 40 hurdat_atl main 439 416 O____________O hurdat_atl AL011872 24.1000 -91.8000 TS 40 0 27.5000 -91.0000 TS 35 5 26
1872191N25268 1872 16 NA GM NOT_NAMED 1872-07-09 09:00:00 TS 25.4575 -91.4099 main 405 381 P____________P AL011872 24.3575 -91.7149 TS 40 0 27.6575 -90.8000 TS 37 5 29
1872191N25268 1872 16 NA GM NOT_NAMED 1872-07-09 12:00:00 TS 25.6667 -91.2667 40 hurdat_atl main 381 357 O____________O hurdat_atl AL011872 24.6000 -91.6000 TS 40 0 27.8000 -90.6000 TS 40 5 37
1872191N25268 1872 16 NA GM NOT_NAMED 1872-07-09 15:00:00 TS 25.8617 -91.0766 main 357 334 P____________P AL011872 24.8425 -91.4150 TS 40 0 27.9000 -90.3999 TS 40 5 42
1872191N25268 1872 16 NA GM NOT_NAMED 1872-07-09 18:00:00 TS 26.0667 -90.8667 40 hurdat_atl main 334 312 O____________O hurdat_atl AL011872 25.1000 -91.2000 TS 40 0 28.0000 -90.2000 TS 40 6 39
1872191N25268 1872 16 NA GM NOT_NAMED 1872-07-09 21:00:00 TS 26.3117 -90.6641 main 312 279 P____________P AL011872 25.3925 -90.9999 TS 45 0 28.1500 -89.9926 TS 42 6 36
1872191N25268 1872 16 NA GM NOT_NAMED 1872-07-10 00:00:00 TS 26.5667 -90.4667 50 hurdat_atl main 279 256 O____________O hurdat_atl AL011872 25.7000 -90.8000 TS 50 0 28.3000 -89.8000 TS 45 6 36
1872191N25268 1872 16 NA GM NOT_NAMED 1872-07-10 03:00:00 TS 26.7849 -90.2856 main 256 234 P____________P AL011872 25.9925 -90.5999 TS 50 0 28.3699 -89.6571 TS 45 6 35
1872191N25268 1872 16 NA GM NOT_NAMED 1872-07-10 06:00:00 TS 27.0333 -90.1000 50 hurdat_atl main 234 201 O____________O hurdat_atl AL011872 26.3000 -90.4000 TS 50 0 28.5000 -89.5000 TS 45 7 31
1872191N25268 1872 16 NA GM NOT_NAMED 1872-07-10 09:00:00 TS 27.3683 -89.8884 main 190 156 P____________P AL011872 26.6425 -90.1999 TS 50 0 28.8200 -89.2652 TS 47 8 29
1872191N25268 1872 16 NA GM NOT_NAMED 1872-07-10 12:00:00 TS 27.7333 -89.6667 50 hurdat_atl main 156 118 O____________O hurdat_atl AL011872 27.0000 -90.0000 TS 50 0 29.2000 -89.0000 TS 50 8 30
1872191N25268 1872 16 NA GM NOT_NAMED 1872-07-10 15:00:00 TS 28.0667 -89.4424 main 104 67 P____________P AL011872 27.3500 -89.7924 TS 50 0 29.5000 -88.7423 TS 50 8 30
1872191N25268 1872 16 NA GM NOT_NAMED 1872-07-10 18:00:00 TS 28.4000 -89.2333 50 hurdat_atl main 67 33 O____________O hurdat_atl AL011872 27.7000 -89.6000 TS 50 0 29.8000 -88.5000 TS 50 8 27
1872191N25268 1872 16 NA GM NOT_NAMED 1872-07-10 21:00:00 TS 28.7498 -89.0435 main 34 9 P____________P AL011872 28.0384 -89.4376 TS 50 0 30.1725 -88.2553 TS 50 8 23
1872191N25268 1872 16 NA GM NOT_NAMED 1872-07-11 00:00:00 TS 29.1000 -88.9000 50 hurdat_atl main 9 9 O____________O hurdat_atl AL011872 28.4000 -89.3000 TS 50 0 30.5000 -88.1000 TS 50 7 17
1872191N25268 1872 16 NA GM NOT_NAMED 1872-07-11 03:00:00 TS 29.4554 -88.8038 main 44 44 P____________P AL011872 28.8432 -89.1496 TS 50 0 30.6800 -88.1122 TS 50 7 10
1872191N25268 1872 16 NA GM NOT_NAMED 1872-07-11 05:00:00 TS 29.6535 -88.7900 50 hurdat_atl main 49 49 O____________P hurdat_atl AL011872 29.1000 -89.1000 L TS 50 0 30.7605 -88.1701 TS 50 6 0
1872191N25268 1872 16 NA GM NOT_NAMED 1872-07-11 06:00:00 TS 29.7333 -88.8000 50 hurdat_atl main 49 0 O____________O hurdat_atl AL011872 29.2000 -89.1000 TS 50 0 30.8000 -88.2000 TS 50 16 4
1872191N25268 1872 16 NA NA NOT_NAMED 1872-07-11 08:00:00 TS 30.4333 -88.7444 50 hurdat_atl main 0 0 O____________P hurdat_atl AL011872 30.2000 -89.0000 L TS 50 0 30.9000 -88.2333 TS 50 17 4
1872191N25268 1872 16 NA NA NOT_NAMED 1872-07-11 09:00:00 TS 30.5544 -88.7365 main 0 0 P____________P AL011872 30.3567 -88.9797 TS 50 0 30.9500 -88.2500 TS 50 1 193
1872191N25268 1872 16 NA GM NOT_NAMED 1872-07-11 12:00:00 TS 30.3667 -88.7667 50 hurdat_atl main 0 0 O____________O hurdat_atl AL011872 30.0000 -89.0000 TS 50 0 31.1000 -88.3000 TS 50 0 248
1872191N25268 1872 16 NA NA NOT_NAMED 1872-07-11 15:00:00 TS 30.5394 -88.7833 main 0 0 P____________P AL011872 30.1841 -89.0000 TS 50 0 31.2500 -88.3500 TS 50 4 355
1872191N25268 1872 16 NA NA NOT_NAMED 1872-07-11 18:00:00 TS 30.8000 -88.8000 50 hurdat_atl main 0 0 O____________O hurdat_atl AL011872 30.5000 -89.0000 TS 50 0 31.4000 -88.4000 TS 50 5 357
1872191N25268 1872 16 NA NA NOT_NAMED 1872-07-11 21:00:00 TS 30.9883 -88.8142 main 0 0 P____________P AL011872 30.7075 -88.9925 TS 45 0 31.5500 -88.4575 TS 45 4 354
1872191N25268 1872 16 NA NA NOT_NAMED 1872-07-12 00:00:00 TS 31.1667 -88.8333 40 hurdat_atl main 0 0 O____________O hurdat_atl AL011872 30.9000 -89.0000 TS 40 0 31.7000 -88.5000 TS 40 4 355
1872191N25268 1872 16 NA NA NOT_NAMED 1872-07-12 03:00:00 TS 31.3600 -88.8592 main 0 0 P____________P AL011872 31.1075 -89.0350 TS 40 0 31.8650 -88.5075 TS 35 4 351
1872191N25268 1872 16 NA NA NOT_NAMED 1872-07-12 06:00:00 TS 31.5333 -88.9000 40 hurdat_atl main 0 0 O____________O hurdat_atl AL011872 31.3000 -89.1000 TS 40 0 32.0000 -88.5000 TD 30 3 343
1872191N25268 1872 16 NA NA NOT_NAMED 1872-07-12 09:00:00 TS 31.6550 -88.9617 main 0 0 P____________P AL011872 31.4500 -89.1925 TS 40 0 32.0650 -88.5000 TD 30 3 334
1872191N25268 1872 16 NA NA NOT_NAMED 1872-07-12 12:00:00 TS 31.7667 -89.0333 40 hurdat_atl main 0 0 O____________O hurdat_atl AL011872 31.6000 -89.3000 TS 40 0 32.1000 -88.5000 TD 30 3 334
1872191N25268 1872 16 NA NA NOT_NAMED 1872-07-12 15:00:00 TS 31.9067 -89.1100 main 0 0 P____________P AL011872 31.7850 -89.4149 TS 40 0 32.1500 -88.5000 TD 30 3 340
1872191N25268 1872 16 NA NA NOT_NAMED 1872-07-12 18:00:00 TS 32.0667 -89.1667 40 hurdat_atl main 0 0 O____________O hurdat_atl AL011872 32.0000 -89.5000 TS 40 0 32.2000 -88.5000 TD 30 3 351
1872191N25268 1872 16 NA NA NOT_NAMED 1872-07-12 21:00:00 TS 32.2425 -89.1817 main 0 0 P____________P AL011872 32.2425 -89.5225 TS 35 0 32.2425 -88.5000 TD 30 4 2
1872191N25268 1872 16 NA NA NOT_NAMED 1872-07-13 00:00:00 TS 32.4333 -89.1667 30 hurdat_atl main 0 0 O____________O hurdat_atl AL011872 32.5000 -89.5000 TD 30 -1 32.3000 -88.5000 TD 30 4 7
1872191N25268 1872 16 NA NA NOT_NAMED 1872-07-13 03:00:00 TS 32.6233 -89.1408 main 0 0 P____________P AL011872 32.7499 -89.4798 TD 30 -1 32.3699 -88.4628 TD 27 4 8
1872191N25268 1872 16 NA NA NOT_NAMED 1872-07-13 06:00:00 TS 32.8333 -89.1000 30 hurdat_atl main 0 0 O____________O hurdat_atl AL011872 33.0000 -89.4000 TD 30 -1 32.5000 -88.5000 TD 25 4 9
1872191N25268 1872 16 NA NA NOT_NAMED 1872-07-13 09:00:00 TS 33.0659 -89.0574 main 0 0 P____________P AL011872 33.2350 -89.2299 TD 30 -1 32.7276 -88.7123 TD 25 5 9
1872191N25268 1872 16 NA NA NOT_NAMED 1872-07-13 12:00:00 TS 33.3333 -89.0000 30 hurdat_atl main 0 0 O____________O hurdat_atl AL011872 33.5000 -89.0000 TD 30 -1 33.0000 -89.0000 TD 25 6 11
1872191N25268 1872 16 NA NA NOT_NAMED 1872-07-13 15:00:00 TS 33.6392 -88.9228 main 0 0 P____________P AL011872 33.8301 -88.7530 TD 30 -1 33.2575 -89.2625 TD 25 7 12
1872191N25268 1872 16 NA NA NOT_NAMED 1872-07-13 18:00:00 TS 33.9667 -88.8333 30 hurdat_atl main 0 O____________O hurdat_atl AL011872 34.2000 -88.5000 TD 30 -1 33.5000 -89.5000 TD 25 7 13

About IBTrACS Database

This database is a web-friendly format of International Best Track Archive for Climate Stewardship (IBTrACS), a global best track data archive curated by NOAA dating back to 1842.

Updated: 2021-12-03